createdAt,value
2023-05-06T00:00:37.747Z,12.35
2023-05-06T00:03:11.214Z,12.73
2023-05-06T00:05:46.362Z,13.32
2023-05-06T00:08:16.960Z,12.65
2023-05-06T00:10:47.003Z,13.25
2023-05-06T00:13:16.338Z,12.82
2023-05-06T00:15:51.507Z,12.60
2023-05-06T00:18:22.441Z,12.63
2023-05-06T00:20:50.867Z,12.63
2023-05-06T00:23:22.736Z,12.18
2023-05-06T00:26:05.591Z,12.25
2023-05-06T00:28:37.420Z,12.85
2023-05-06T00:31:11.168Z,12.85
2023-05-06T00:33:44.681Z,12.63
2023-05-06T00:36:13.508Z,12.77
2023-05-06T00:38:46.801Z,12.80
2023-05-06T00:41:16.390Z,12.55
2023-05-06T00:43:46.930Z,12.52
2023-05-06T00:46:18.281Z,12.75
2023-05-06T00:48:55.838Z,12.88
2023-05-06T00:51:28.523Z,12.60
2023-05-06T00:54:00.033Z,13.00
2023-05-06T00:56:34.817Z,13.18
2023-05-06T00:59:08.107Z,12.77
2023-05-06T01:01:40.170Z,12.23
2023-05-06T01:06:58.201Z,12.68
2023-05-06T01:09:33.939Z,12.93
2023-05-06T01:12:11.178Z,13.05
2023-05-06T01:14:49.044Z,12.02
2023-05-06T01:17:24.863Z,13.10
2023-05-06T01:20:04.220Z,13.02
2023-05-06T01:22:35.568Z,13.70
2023-05-06T01:25:11.881Z,12.15
2023-05-06T01:27:41.764Z,12.45
2023-05-06T01:30:15.141Z,12.65
2023-05-06T01:33:02.753Z,12.68
2023-05-06T01:35:37.565Z,12.60
2023-05-06T01:38:18.962Z,14.55
2023-05-06T01:40:56.857Z,14.30
2023-05-06T01:43:29.549Z,14.85
2023-05-06T01:46:04.268Z,14.13
2023-05-06T01:48:37.807Z,13.27
2023-05-06T01:51:06.719Z,14.45
2023-05-06T01:53:37.842Z,14.10
2023-05-06T01:56:12.114Z,14.80
2023-05-06T01:58:43.063Z,14.23
2023-05-06T02:01:15.480Z,13.32
2023-05-06T02:03:45.539Z,14.50
2023-05-06T02:06:20.989Z,14.20
2023-05-06T02:08:52.015Z,15.32
2023-05-06T02:11:24.708Z,14.63
2023-05-06T02:13:55.092Z,14.40
2023-05-06T02:16:29.562Z,14.18
2023-05-06T02:19:00.230Z,15.38
2023-05-06T02:21:29.361Z,15.65
2023-05-06T02:24:01.334Z,15.95
2023-05-06T02:26:32.370Z,15.80
2023-05-06T02:29:03.042Z,15.10
2023-05-06T02:31:35.428Z,15.87
2023-05-06T02:34:15.369Z,14.90
2023-05-06T02:36:45.637Z,15.73
2023-05-06T02:39:15.484Z,12.30
2023-05-06T02:41:47.324Z,13.18
2023-05-06T02:44:18.044Z,13.38
2023-05-06T02:46:51.116Z,13.80
2023-05-06T02:49:23.662Z,13.68
2023-05-06T02:51:52.262Z,14.23
2023-05-06T02:54:27.315Z,15.18
2023-05-06T02:56:58.369Z,15.10
2023-05-06T02:59:30.951Z,16.70
2023-05-06T03:02:02.207Z,17.13
2023-05-06T03:04:34.040Z,18.33
2023-05-06T03:09:33.838Z,18.70
2023-05-06T03:12:06.472Z,18.90
2023-05-06T03:14:36.699Z,18.38
2023-05-06T03:17:11.427Z,18.42
2023-05-06T03:19:39.573Z,18.42
2023-05-06T03:22:07.870Z,18.88
2023-05-06T03:24:37.651Z,19.30
2023-05-06T03:27:08.675Z,18.75
2023-05-06T03:29:41.368Z,18.27
2023-05-06T03:32:17.767Z,17.50
2023-05-06T03:34:49.282Z,17.83
2023-05-06T03:37:21.204Z,17.42
2023-05-06T03:42:24.380Z,17.20
2023-05-06T03:44:57.096Z,16.83
2023-05-06T03:47:29.831Z,17.55
2023-05-06T03:50:00.831Z,16.45
2023-05-06T03:52:31.637Z,17.60
2023-05-06T03:55:02.348Z,16.80
2023-05-06T03:57:33.436Z,16.88
2023-05-06T04:00:03.721Z,23.90
2023-05-06T04:02:38.524Z,22.10
2023-05-06T04:05:08.087Z,17.60
2023-05-06T04:07:40.770Z,15.82
2023-05-06T04:10:12.147Z,15.32
2023-05-06T04:12:42.793Z,16.65
2023-05-06T04:15:14.050Z,16.30
2023-05-06T04:17:47.065Z,17.20
2023-05-06T04:20:17.793Z,16.80
2023-05-06T04:22:47.969Z,16.42
2023-05-06T04:25:18.533Z,15.18
2023-05-06T04:27:49.981Z,14.98
2023-05-06T04:30:22.586Z,14.70
2023-05-06T04:32:56.615Z,14.68
2023-05-06T04:35:27.058Z,14.52
2023-05-06T04:37:58.438Z,14.70
2023-05-06T04:40:31.153Z,13.93
2023-05-06T04:43:06.083Z,14.85
2023-05-06T04:45:40.414Z,14.23
2023-05-06T04:48:11.399Z,15.05
2023-05-06T04:50:43.477Z,14.47
2023-05-06T04:55:44.476Z,15.13
2023-05-06T04:58:15.530Z,14.77
2023-05-06T05:00:46.276Z,15.10
2023-05-06T05:03:14.822Z,14.60
2023-05-06T05:05:43.189Z,14.68
2023-05-06T05:08:15.429Z,14.23
2023-05-06T05:13:19.307Z,13.77
2023-05-06T05:15:48.235Z,14.55
2023-05-06T05:18:17.496Z,14.13
2023-05-06T05:20:48.074Z,14.13
2023-05-06T05:23:20.262Z,14.10
2023-05-06T05:25:48.809Z,13.80
2023-05-06T05:28:19.890Z,13.77
2023-05-06T05:30:55.154Z,13.83
2023-05-06T05:33:26.271Z,13.27
2023-05-06T05:36:01.092Z,13.50
2023-05-06T05:38:31.149Z,13.15
2023-05-06T05:41:00.533Z,13.30
2023-05-06T05:43:33.635Z,13.10
2023-05-06T05:46:03.659Z,13.10
2023-05-06T05:48:33.739Z,13.20
2023-05-06T05:51:03.249Z,13.10
2023-05-06T05:53:32.628Z,13.25
2023-05-06T05:56:02.867Z,13.38
2023-05-06T05:58:36.484Z,12.95
2023-05-06T06:01:06.204Z,13.63
2023-05-06T06:03:34.922Z,13.15
2023-05-06T06:06:03.645Z,13.07
2023-05-06T06:08:40.423Z,12.30
2023-05-06T06:11:10.758Z,12.88
2023-05-06T06:13:43.145Z,12.07
2023-05-06T06:16:14.132Z,12.48
2023-05-06T06:18:46.583Z,12.05
2023-05-06T06:21:18.178Z,11.20
2023-05-06T06:23:51.121Z,11.38
2023-05-06T06:26:21.541Z,11.18
2023-05-06T06:28:52.981Z,10.40
2023-05-06T06:31:27.906Z,10.48
2023-05-06T06:34:00.145Z,10.70
2023-05-06T06:39:03.490Z,10.00
2023-05-06T06:41:33.661Z,9.13
2023-05-06T06:44:08.469Z,8.75
2023-05-06T06:46:42.997Z,9.00
2023-05-06T06:49:17.492Z,8.48
2023-05-06T06:51:47.612Z,8.20
2023-05-06T06:54:19.346Z,8.40
2023-05-06T06:56:54.673Z,8.38
2023-05-06T06:59:26.425Z,8.32
2023-05-06T07:01:57.460Z,8.45
2023-05-06T07:04:31.323Z,8.82
2023-05-06T07:07:01.767Z,8.35
2023-05-06T07:09:35.773Z,8.25
2023-05-06T07:12:09.853Z,8.05
2023-05-06T07:14:41.495Z,7.88
2023-05-06T07:17:11.729Z,8.30
2023-05-06T07:19:41.561Z,7.90
2023-05-06T07:22:10.517Z,8.55
2023-05-06T07:24:41.470Z,7.68
2023-05-06T07:27:13.370Z,7.80
2023-05-06T07:29:49.995Z,8.05
2023-05-06T07:32:21.856Z,7.32
2023-05-06T07:34:54.437Z,7.45
2023-05-06T07:37:30.353Z,7.93
2023-05-06T07:40:00.800Z,7.80
2023-05-06T07:42:43.266Z,7.82
2023-05-06T07:45:14.113Z,7.10
2023-05-06T07:47:47.219Z,7.38
2023-05-06T07:50:16.020Z,7.15
2023-05-06T07:52:46.242Z,7.18
2023-05-06T07:55:20.652Z,7.72
2023-05-06T07:57:50.555Z,6.40
2023-05-06T08:00:29.365Z,6.78
2023-05-06T08:03:00.269Z,7.53
2023-05-06T08:08:10.030Z,7.18
2023-05-06T08:10:44.108Z,7.15
2023-05-06T08:13:14.643Z,7.43
2023-05-06T08:15:46.582Z,7.63
2023-05-06T08:18:22.338Z,7.07
2023-05-06T08:20:52.864Z,7.00
2023-05-06T08:23:23.617Z,7.45
2023-05-06T08:25:54.240Z,6.78
2023-05-06T08:28:25.721Z,7.03
2023-05-06T08:30:57.494Z,7.00
2023-05-06T08:33:27.681Z,7.10
2023-05-06T08:36:00.418Z,6.93
2023-05-06T08:38:28.836Z,7.03
2023-05-06T08:41:04.704Z,6.90
2023-05-06T08:43:34.926Z,6.95
2023-05-06T08:46:12.267Z,6.80
2023-05-06T08:48:43.059Z,7.15
2023-05-06T08:51:19.247Z,6.43
2023-05-06T08:53:49.514Z,6.95
2023-05-06T08:56:23.630Z,6.47
2023-05-06T08:58:53.844Z,6.35
2023-05-06T09:01:28.188Z,6.45
2023-05-06T09:03:59.119Z,6.95
2023-05-06T09:06:28.110Z,6.47
2023-05-06T09:08:57.806Z,6.28
2023-05-06T09:11:30.377Z,6.40
2023-05-06T09:14:14.809Z,6.18
2023-05-06T09:16:51.475Z,5.60
2023-05-06T09:19:23.343Z,5.70
2023-05-06T09:21:52.720Z,5.55
2023-05-06T09:24:22.720Z,5.53
2023-05-06T09:26:58.109Z,5.60
2023-05-06T09:29:29.524Z,5.95
2023-05-06T09:32:12.602Z,5.35
2023-05-06T09:34:47.871Z,5.40
2023-05-06T09:37:24.858Z,5.30
2023-05-06T09:39:56.239Z,5.40
2023-05-06T09:42:28.451Z,5.78
2023-05-06T09:45:01.290Z,7.75
2023-05-06T09:47:41.848Z,7.00
2023-05-06T09:50:15.968Z,6.00
2023-05-06T09:52:49.447Z,5.60
2023-05-06T09:55:22.252Z,5.78
2023-05-06T09:57:55.547Z,5.63
2023-05-06T10:00:32.471Z,5.32
2023-05-06T10:03:04.434Z,5.03
2023-05-06T10:05:38.308Z,5.03
2023-05-06T10:08:10.664Z,5.18
2023-05-06T10:10:42.089Z,4.95
2023-05-06T10:13:14.424Z,4.85
2023-05-06T10:15:45.327Z,4.50
2023-05-06T10:18:18.115Z,4.57
2023-05-06T10:20:47.808Z,4.28
2023-05-06T10:23:29.687Z,3.85
2023-05-06T10:26:08.642Z,4.03
2023-05-06T10:28:43.122Z,3.80
2023-05-06T10:31:16.151Z,4.13
2023-05-06T10:33:55.435Z,4.10
2023-05-06T10:36:28.839Z,4.00
2023-05-06T10:39:00.715Z,4.07
2023-05-06T10:41:39.328Z,4.40
2023-05-06T10:44:10.655Z,4.10
2023-05-06T10:47:00.584Z,4.32
2023-05-06T10:49:30.488Z,4.00
2023-05-06T10:52:15.175Z,4.00
2023-05-06T10:54:51.102Z,3.92
2023-05-06T10:57:20.805Z,4.13
2023-05-06T10:59:51.453Z,4.07
2023-05-06T11:02:22.316Z,4.10
2023-05-06T11:05:03.603Z,3.83
2023-05-06T11:07:37.414Z,4.15
2023-05-06T11:10:08.213Z,4.05
2023-05-06T11:12:51.403Z,3.88
2023-05-06T11:15:28.679Z,4.40
2023-05-06T11:18:00.676Z,4.15
2023-05-06T11:23:02.308Z,3.72
2023-05-06T11:25:43.615Z,4.13
2023-05-06T11:28:20.105Z,3.80
2023-05-06T11:30:57.345Z,4.22
2023-05-06T11:33:29.154Z,4.15
2023-05-06T11:36:00.979Z,4.53
2023-05-06T11:38:45.689Z,4.20
2023-05-06T11:41:16.701Z,4.20
2023-05-06T11:43:53.616Z,4.00
2023-05-06T11:46:23.542Z,4.30
2023-05-06T11:49:00.928Z,4.38
2023-05-06T11:51:33.760Z,3.97
2023-05-06T11:54:08.033Z,4.30
2023-05-06T11:56:56.277Z,4.32
2023-05-06T11:59:34.651Z,4.22
2023-05-06T12:02:06.568Z,4.50
2023-05-06T12:04:42.483Z,4.88
2023-05-06T12:07:18.956Z,4.95
2023-05-06T12:09:49.932Z,5.10
2023-05-06T12:12:28.118Z,5.07
2023-05-06T12:14:58.380Z,5.00
2023-05-06T12:17:28.767Z,5.43
2023-05-06T12:19:57.846Z,5.35
2023-05-06T12:22:30.809Z,5.30
2023-05-06T12:25:17.466Z,4.95
2023-05-06T12:27:47.504Z,5.00
2023-05-06T12:30:29.667Z,5.18
2023-05-06T12:33:03.992Z,4.97
2023-05-06T12:35:33.798Z,5.13
2023-05-06T12:38:13.276Z,5.45
2023-05-06T12:40:43.573Z,4.80
2023-05-06T12:43:14.031Z,5.20
2023-05-06T12:45:48.460Z,4.53
2023-05-06T12:48:25.323Z,4.65
2023-05-06T12:50:56.589Z,4.47
2023-05-06T12:53:42.651Z,4.63
2023-05-06T12:56:14.962Z,4.70
2023-05-06T12:58:45.960Z,4.40
2023-05-06T13:01:24.255Z,4.57
2023-05-06T13:03:56.150Z,4.32
2023-05-06T13:06:25.117Z,4.40
2023-05-06T13:08:58.607Z,4.68
2023-05-06T13:11:29.121Z,4.47
2023-05-06T13:13:59.286Z,4.60
2023-05-06T13:16:27.834Z,4.50
2023-05-06T13:19:02.107Z,4.53
2023-05-06T13:21:34.461Z,4.70
2023-05-06T13:24:07.475Z,4.88
2023-05-06T13:26:38.714Z,4.38
2023-05-06T13:29:11.077Z,4.47
2023-05-06T13:31:42.536Z,4.70
2023-05-06T13:34:13.453Z,4.82
2023-05-06T13:36:43.875Z,4.20
2023-05-06T13:39:16.638Z,4.88
2023-05-06T13:41:54.839Z,4.85
2023-05-06T13:44:29.086Z,4.85
2023-05-06T13:47:00.141Z,4.90
2023-05-06T13:49:33.609Z,5.03
2023-05-06T13:52:05.206Z,4.70
2023-05-06T13:54:38.798Z,4.72
2023-05-06T13:57:07.668Z,5.55
2023-05-06T13:59:37.588Z,5.57
2023-05-06T14:02:10.614Z,5.30
2023-05-06T14:04:43.261Z,5.78
2023-05-06T14:07:13.523Z,5.50
2023-05-06T14:09:49.854Z,5.70
2023-05-06T14:12:20.154Z,5.90
2023-05-06T14:14:49.478Z,5.80
2023-05-06T14:17:19.970Z,5.60
2023-05-06T14:19:50.336Z,5.60
2023-05-06T14:22:20.495Z,5.82
2023-05-06T14:24:51.880Z,5.63
2023-05-06T14:27:22.941Z,5.25
2023-05-06T14:29:52.992Z,6.18
2023-05-06T14:32:22.824Z,5.63
2023-05-06T14:34:56.770Z,5.90
2023-05-06T14:37:27.699Z,5.60
2023-05-06T14:39:59.910Z,5.65
2023-05-06T14:42:28.115Z,6.40
2023-05-06T14:45:00.433Z,5.75
2023-05-06T14:47:28.579Z,6.25
2023-05-06T14:50:00.900Z,6.00
2023-05-06T14:52:31.440Z,6.18
2023-05-06T14:55:03.180Z,6.38
2023-05-06T15:00:03.288Z,6.80
2023-05-06T15:02:35.952Z,7.22
2023-05-06T15:05:09.996Z,7.47
2023-05-06T15:07:39.375Z,7.43
2023-05-06T15:10:11.121Z,7.45
2023-05-06T15:15:15.884Z,7.82
2023-05-06T15:17:48.891Z,8.27
2023-05-06T15:20:19.170Z,8.38
2023-05-06T15:22:49.583Z,8.35
2023-05-06T15:25:33.979Z,8.45
2023-05-06T15:28:07.214Z,8.45
2023-05-06T15:30:40.048Z,8.02
2023-05-06T15:33:12.052Z,7.93
2023-05-06T15:35:44.751Z,8.30
2023-05-06T15:38:15.481Z,7.97
2023-05-06T15:40:55.056Z,7.72
2023-05-06T15:43:24.829Z,7.75
2023-05-06T15:46:00.398Z,7.72
2023-05-06T15:48:33.039Z,7.88
2023-05-06T15:51:08.750Z,8.02
2023-05-06T15:53:41.307Z,7.93
2023-05-06T15:56:18.154Z,8.23
2023-05-06T15:58:52.002Z,8.23
2023-05-06T16:01:47.919Z,8.27
2023-05-06T16:04:17.509Z,7.80
2023-05-06T16:06:51.394Z,7.72
2023-05-06T16:09:20.467Z,7.40
2023-05-06T16:11:54.951Z,7.10
2023-05-06T16:14:24.960Z,7.45
2023-05-06T16:16:57.733Z,7.40
2023-05-06T16:19:27.645Z,7.35
2023-05-06T16:22:03.399Z,7.32
2023-05-06T16:24:34.931Z,6.80
2023-05-06T16:27:06.803Z,6.30
2023-05-06T16:29:35.471Z,6.18
2023-05-06T16:32:09.023Z,6.13
2023-05-06T16:34:40.352Z,5.93
2023-05-06T16:37:10.011Z,6.32
2023-05-06T16:39:39.542Z,6.00
2023-05-06T16:42:14.229Z,5.88
2023-05-06T16:44:44.915Z,6.20
2023-05-06T16:47:13.528Z,5.95
2023-05-06T16:49:41.839Z,6.47
2023-05-06T16:52:14.210Z,6.30
2023-05-06T16:54:49.373Z,6.07
2023-05-06T16:57:20.753Z,5.85
2023-05-06T16:59:52.513Z,6.00
2023-05-06T17:04:52.079Z,6.50
2023-05-06T17:07:26.077Z,6.63
2023-05-06T17:09:55.280Z,6.60
2023-05-06T17:12:28.712Z,6.90
2023-05-06T17:15:00.786Z,7.80
2023-05-06T17:17:33.305Z,7.65
2023-05-06T17:20:09.330Z,8.05
2023-05-06T17:22:39.073Z,7.45
2023-05-06T17:25:10.323Z,7.65
2023-05-06T17:27:41.923Z,7.45
2023-05-06T17:30:14.592Z,7.45
2023-05-06T17:32:43.715Z,7.80
2023-05-06T17:35:13.883Z,8.20
2023-05-06T17:37:45.274Z,8.00
2023-05-06T17:40:16.541Z,8.13
2023-05-06T17:42:51.190Z,8.63
2023-05-06T17:45:25.329Z,8.15
2023-05-06T17:47:56.753Z,8.32
2023-05-06T17:50:28.032Z,8.25
2023-05-06T17:52:56.440Z,8.77
2023-05-06T17:55:29.163Z,9.98
2023-05-06T17:58:01.130Z,10.00
2023-05-06T18:00:33.547Z,9.52
2023-05-06T18:03:04.392Z,8.85
2023-05-06T18:08:07.088Z,8.63
2023-05-06T18:10:37.551Z,9.00
2023-05-06T18:13:11.566Z,9.30
2023-05-06T18:15:43.641Z,9.02
2023-05-06T18:18:16.820Z,9.32
2023-05-06T18:20:45.924Z,10.57
2023-05-06T18:23:16.168Z,10.00
2023-05-06T18:25:46.663Z,10.57
2023-05-06T18:28:19.316Z,11.73
2023-05-06T18:30:51.575Z,11.48
2023-05-06T18:33:22.278Z,11.82
2023-05-06T18:35:50.448Z,11.45
2023-05-06T18:38:21.529Z,11.18
2023-05-06T18:40:52.326Z,11.38
2023-05-06T18:43:28.052Z,10.48
2023-05-06T18:46:01.395Z,10.45
2023-05-06T18:48:32.144Z,10.20
2023-05-06T18:51:18.700Z,11.10
2023-05-06T18:53:54.753Z,10.90
2023-05-06T18:56:27.521Z,10.75
2023-05-06T18:59:00.033Z,10.70
2023-05-06T19:01:31.285Z,11.05
2023-05-06T19:04:03.239Z,11.15
2023-05-06T19:06:32.619Z,11.55
2023-05-06T19:09:07.322Z,11.23
2023-05-06T19:11:39.293Z,10.63
2023-05-06T19:14:13.751Z,11.02
2023-05-06T19:16:49.282Z,10.70
2023-05-06T19:19:24.528Z,10.77
2023-05-06T19:21:54.899Z,11.18
2023-05-06T19:24:27.830Z,12.35
2023-05-06T19:27:03.079Z,11.98
2023-05-06T19:29:33.780Z,11.77
2023-05-06T19:32:04.139Z,11.30
2023-05-06T19:34:33.620Z,11.13
2023-05-06T19:37:12.236Z,11.05
2023-05-06T19:39:42.709Z,11.45
2023-05-06T19:42:17.147Z,14.32
2023-05-06T19:44:52.157Z,12.05
2023-05-06T19:47:23.243Z,13.52
2023-05-06T19:49:55.845Z,13.40
2023-05-06T19:55:01.619Z,13.30
2023-05-06T19:57:34.761Z,23.85
2023-05-06T20:00:10.721Z,19.27
2023-05-06T20:02:41.956Z,15.57
2023-05-06T20:05:11.668Z,13.73
2023-05-06T20:07:43.997Z,12.55
2023-05-06T20:10:32.987Z,12.65
2023-05-06T20:13:05.585Z,12.10
2023-05-06T20:15:37.409Z,12.27
2023-05-06T20:18:07.909Z,12.35
2023-05-06T20:20:42.489Z,12.07
2023-05-06T20:23:13.112Z,12.40
2023-05-06T20:25:42.317Z,11.93
2023-05-06T20:28:17.634Z,11.05
2023-05-06T20:30:55.599Z,11.43
2023-05-06T20:33:24.153Z,10.95
2023-05-06T20:35:53.451Z,11.38
2023-05-06T20:38:27.178Z,11.35
2023-05-06T20:40:59.671Z,12.02
2023-05-06T20:43:30.446Z,12.32
2023-05-06T20:46:06.967Z,12.05
2023-05-06T20:48:37.791Z,12.40
2023-05-06T20:51:08.264Z,12.77
2023-05-06T20:53:38.733Z,13.10
2023-05-06T20:56:18.491Z,12.02
2023-05-06T20:58:55.479Z,12.65
2023-05-06T21:01:32.050Z,11.85
2023-05-06T21:04:04.781Z,12.27
2023-05-06T21:06:35.654Z,12.25
2023-05-06T21:09:05.238Z,13.60
2023-05-06T21:11:41.565Z,12.50
2023-05-06T21:14:11.951Z,12.52
2023-05-06T21:16:45.208Z,12.98
2023-05-06T21:19:15.859Z,13.55
2023-05-06T21:21:48.698Z,13.85
2023-05-06T21:24:18.473Z,13.75
2023-05-06T21:26:53.161Z,13.63
2023-05-06T21:29:21.744Z,13.85
2023-05-06T21:31:54.881Z,14.27
2023-05-06T21:34:23.728Z,14.60
2023-05-06T21:36:57.856Z,14.02
2023-05-06T21:39:28.399Z,14.27
2023-05-06T21:42:02.803Z,14.27
2023-05-06T21:44:33.321Z,13.85
2023-05-06T21:47:05.053Z,14.73
2023-05-06T21:49:34.995Z,14.73
2023-05-06T21:52:10.901Z,15.52
2023-05-06T21:54:40.951Z,15.77
2023-05-06T21:57:20.888Z,15.57
2023-05-06T21:59:55.180Z,15.38
2023-05-06T22:02:27.486Z,16.00
2023-05-06T22:04:57.987Z,15.98
2023-05-06T22:07:27.277Z,15.27
2023-05-06T22:09:55.825Z,16.33
2023-05-06T22:12:26.318Z,15.48
2023-05-06T22:14:59.162Z,14.88
2023-05-06T22:17:36.614Z,15.38
2023-05-06T22:20:11.127Z,15.13
2023-05-06T22:22:43.141Z,15.25
2023-05-06T22:25:12.727Z,16.83
2023-05-06T22:27:41.908Z,17.25
2023-05-06T22:30:18.167Z,17.67
2023-05-06T22:32:51.361Z,17.10
2023-05-06T22:35:23.520Z,16.80
2023-05-06T22:37:56.615Z,17.52
2023-05-06T22:40:28.383Z,17.95
2023-05-06T22:43:04.294Z,18.00
2023-05-06T22:45:40.385Z,18.30
2023-05-06T22:48:16.991Z,18.33
2023-05-06T22:50:48.398Z,17.48
2023-05-06T22:53:19.051Z,17.20
2023-05-06T22:56:00.719Z,17.65
2023-05-06T22:58:30.104Z,17.75
2023-05-06T23:00:58.330Z,18.08
2023-05-06T23:03:31.745Z,17.95
2023-05-06T23:06:00.066Z,17.38
2023-05-06T23:08:28.770Z,17.48
2023-05-06T23:10:59.573Z,17.50
2023-05-06T23:13:36.083Z,17.23
2023-05-06T23:16:07.894Z,16.77
2023-05-06T23:18:40.378Z,17.08
2023-05-06T23:21:13.909Z,16.98
2023-05-06T23:23:48.777Z,17.23
2023-05-06T23:26:19.780Z,17.73
2023-05-06T23:28:55.003Z,17.80
2023-05-06T23:31:25.357Z,17.88
2023-05-06T23:33:57.547Z,19.02
2023-05-06T23:36:30.993Z,19.42
2023-05-06T23:39:00.332Z,18.60
2023-05-06T23:41:29.984Z,19.40
2023-05-06T23:44:06.907Z,18.85
2023-05-06T23:46:39.819Z,19.42
2023-05-06T23:49:12.526Z,19.45
2023-05-06T23:51:41.943Z,19.20
2023-05-06T23:54:10.924Z,19.40
2023-05-06T23:56:45.231Z,19.63
2023-05-06T23:59:20.493Z,19.13
